Terminal Aerodrome Forecast
Issued by NWS

Home | Current Version | Previous Version | Text Only | Print | Product List | Glossary On
Versions: 1 2 3 4 5 6 7 8 9 10 11 12 13 14 15 16 17 18 19 20 21 22 23 24 25 26 27 28 29
000
FTUS41 KALY 252300
TAFPSF
TAF
KPSF 252332Z 2600/2624 22006KT P6SM VCSH FEW030 BKN060
      TEMPO 2600/2601 3SM -SHRA BR BKN030 OVC060
     FM260700 27009KT P6SM SCT030 OVC050
      TEMPO 2607/2611 BKN030 OVC060
     FM261300 29012G20KT P6SM VCSH SCT015 OVC030
     FM261800 29015G25KT P6SM SCT025 OVC040=

USA.gov is the U.S. government's official web portal to all federal, state and local government web resources and services.